Time;durP1;ratioP1;P1;durP2;ratioP2;P2;SDS_P1;SDS_P2;PMS_P1;PMS_P2;Temp;Humidity;BMP_temperature;BMP_pressure;BME280_temperature;BME280_humidity;BME280_pressure;Samples;Min_cycle;Max_cycle;Signal;HPM_P1;HPM_P2
2023/05/06 00:00:24;;;;;;;4.27;3.17;;;;;;;11.79;100.00;100415.25;5014087;28;20184;-78
2023/05/06 00:02:49;;;;;;;4.63;4.30;;;;;;;11.77;100.00;100412.00;5019959;28;20821;-78
2023/05/06 00:05:17;;;;;;;3.00;2.80;;;;;;;11.75;100.00;100404.13;5018529;28;20176;-77
2023/05/06 00:07:42;;;;;;;6.33;5.77;;;;;;;11.74;100.00;100398.97;5018478;28;20172;-79
2023/05/06 00:10:08;;;;;;;4.90;2.43;;;;;;;11.73;100.00;100400.91;5017228;28;20206;-78
2023/05/06 00:12:33;;;;;;;0.00;0.00;;;;;;;11.76;100.00;100399.44;5014162;28;20204;-78
2023/05/06 00:14:59;;;;;;;0.47;0.47;;;;;;;11.79;100.00;100402.38;5015146;28;20256;-79
2023/05/06 00:17:24;;;;;;;0.13;0.13;;;;;;;11.82;100.00;100389.97;5015436;28;20188;-78
2023/05/06 00:19:51;;;;;;;0.57;0.57;;;;;;;11.83;100.00;100388.84;5014351;28;20789;-79
2023/05/06 00:22:16;;;;;;;1.70;1.67;;;;;;;11.82;100.00;100392.72;5014701;28;20580;-79
2023/05/06 00:24:42;;;;;;;2.80;2.70;;;;;;;11.81;100.00;100394.63;5013540;28;20188;-79
2023/05/06 00:27:07;;;;;;;1.57;1.23;;;;;;;11.81;100.00;100391.09;5015851;28;20214;-79
2023/05/06 00:29:33;;;;;;;2.17;2.07;;;;;;;11.80;100.00;100386.75;5015780;28;20657;-79
2023/05/06 00:31:58;;;;;;;6.53;3.40;;;;;;;11.76;100.00;100392.03;5016037;28;20581;-78
2023/05/06 00:34:23;;;;;;;2.03;1.93;;;;;;;11.73;100.00;100389.94;5015488;28;20626;-79
2023/05/06 00:36:49;;;;;;;1.73;1.63;;;;;;;11.71;100.00;100391.38;5016276;28;20251;-79
2023/05/06 00:39:15;;;;;;;8.47;7.87;;;;;;;11.65;100.00;100390.72;5015774;28;20181;-79
2023/05/06 00:41:40;;;;;;;4.90;4.60;;;;;;;11.62;100.00;100386.72;5016267;28;20568;-79
2023/05/06 00:44:06;;;;;;;5.93;5.43;;;;;;;11.58;100.00;100387.66;5030875;28;20488;-79
2023/05/06 00:46:32;;;;;;;5.10;4.70;;;;;;;11.56;100.00;100392.63;5016313;28;20184;-79
2023/05/06 00:48:57;;;;;;;1.67;1.47;;;;;;;11.56;100.00;100396.19;5016633;28;20189;-78
2023/05/06 00:51:23;;;;;;;5.27;4.87;;;;;;;11.55;100.00;100402.78;5016594;28;20200;-78
2023/05/06 00:53:48;;;;;;;3.13;2.87;;;;;;;11.55;100.00;100405.50;5018808;28;20223;-79
2023/05/06 00:56:16;;;;;;;3.27;2.97;;;;;;;11.57;100.00;100413.41;5017570;28;20224;-78
2023/05/06 00:58:42;;;;;;;3.10;2.97;;;;;;;11.56;100.00;100401.66;5016151;28;20564;-78
2023/05/06 01:01:08;;;;;;;2.60;2.50;;;;;;;11.58;100.00;100410.38;5018354;28;20216;-79
2023/05/06 01:03:34;;;;;;;1.67;1.57;;;;;;;11.57;100.00;100408.75;5017067;28;20180;-78
2023/05/06 01:06:11;;;;;;;1.43;1.37;;;;;;;11.58;100.00;100407.63;5018180;28;20181;-79
2023/05/06 01:08:58;;;;;;;0.90;0.67;;;;;;;11.59;100.00;100409.25;5017764;28;20177;-79
2023/05/06 01:11:36;;;;;;;5.60;1.40;;;;;;;11.61;100.00;100408.91;5016787;28;20767;-80
2023/05/06 01:14:11;;;;;;;0.43;0.43;;;;;;;11.66;100.00;100408.75;5017284;28;20632;-78
2023/05/06 01:16:40;;;;;;;0.53;0.53;;;;;;;11.69;100.00;100397.16;5017072;28;20248;-79
2023/05/06 01:19:08;;;;;;;3.03;2.83;;;;;;;11.70;100.00;100409.72;5016484;28;20185;-78
2023/05/06 01:21:34;;;;;;;0.30;0.30;;;;;;;11.72;100.00;100415.72;5017331;28;20598;-79
2023/05/06 01:24:00;;;;;;;0.40;0.40;;;;;;;11.77;100.00;100407.34;5016326;28;20208;-78
2023/05/06 01:26:26;;;;;;;0.73;0.73;;;;;;;11.80;100.00;100414.13;5013653;28;20227;-79
2023/05/06 01:28:52;;;;;;;0.30;0.23;;;;;;;11.81;100.00;100413.00;5016391;28;20186;-78
2023/05/06 01:31:28;;;;;;;0.00;0.00;;;;;;;11.86;100.00;100410.09;5014107;28;20690;-79
2023/05/06 01:34:06;;;;;;;0.40;0.23;;;;;;;11.88;100.00;100414.16;5008831;28;20215;-78
2023/05/06 01:36:40;;;;;;;0.13;0.13;;;;;;;11.93;100.00;100409.63;5013069;28;20180;-77
2023/05/06 01:39:17;;;;;;;0.77;0.77;;;;;;;11.89;100.00;100418.50;5015145;28;20184;-78
2023/05/06 01:41:43;;;;;;;0.80;0.80;;;;;;;11.88;100.00;100421.56;5017684;28;20550;-79
2023/05/06 01:44:10;;;;;;;2.40;1.80;;;;;;;11.83;100.00;100414.28;5017530;28;20181;-78
2023/05/06 01:46:35;;;;;;;4.00;3.80;;;;;;;11.86;100.00;100419.13;5017605;28;20196;-79
2023/05/06 01:49:04;;;;;;;0.00;0.00;;;;;;;11.85;100.00;100422.97;5018250;28;20299;-79
2023/05/06 01:51:31;;;;;;;0.10;0.10;;;;;;;11.85;100.00;100416.69;5018646;28;20262;-79
2023/05/06 01:53:57;;;;;;;1.73;1.63;;;;;;;11.85;100.00;100414.75;5018356;28;20271;-79
2023/05/06 01:56:22;;;;;;;0.63;0.63;;;;;;;11.85;100.00;100412.03;5017706;28;20196;-79
2023/05/06 01:58:47;;;;;;;0.57;0.57;;;;;;;11.85;100.00;100424.91;5017743;28;20180;-79
2023/05/06 02:01:13;;;;;;;0.00;0.00;;;;;;;11.84;100.00;100421.38;5017921;28;20388;-79
2023/05/06 02:03:38;;;;;;;0.93;0.93;;;;;;;11.82;100.00;100422.81;5015934;28;20185;-79
2023/05/06 02:06:03;;;;;;;3.77;3.57;;;;;;;11.71;100.00;100424.22;5017775;28;20185;-79
2023/05/06 02:08:29;;;;;;;0.47;0.47;;;;;;;11.69;100.00;100427.28;5018490;28;20259;-79
2023/05/06 02:10:54;;;;;;;0.37;0.37;;;;;;;11.64;100.00;100419.22;5017938;28;20204;-79
2023/05/06 02:13:19;;;;;;;1.30;1.30;;;;;;;11.62;100.00;100421.47;5017512;28;20686;-79
2023/05/06 02:15:45;;;;;;;1.30;1.30;;;;;;;11.61;100.00;100419.88;5017280;28;20211;-79
2023/05/06 02:18:10;;;;;;;2.57;0.53;;;;;;;11.54;100.00;100417.56;5017942;28;20204;-79
2023/05/06 02:20:36;;;;;;;2.97;2.03;;;;;;;11.50;100.00;100427.56;5017819;28;20200;-79
2023/05/06 02:23:01;;;;;;;1.67;1.57;;;;;;;11.41;100.00;100417.69;5017573;28;20185;-77
2023/05/06 02:25:26;;;;;;;1.97;1.87;;;;;;;11.32;100.00;100423.97;5016749;28;20187;-79
2023/05/06 02:27:51;;;;;;;1.73;1.63;;;;;;;11.26;100.00;100417.00;5017236;28;20192;-78
2023/05/06 02:30:17;;;;;;;1.53;1.53;;;;;;;11.22;100.00;100418.78;5017059;28;20180;-78
2023/05/06 02:32:42;;;;;;;1.00;1.00;;;;;;;11.18;100.00;100414.25;5015804;28;20207;-79
2023/05/06 02:35:08;;;;;;;4.93;2.80;;;;;;;11.13;100.00;100414.38;5016748;28;20181;-79
2023/05/06 02:37:33;;;;;;;6.37;5.77;;;;;;;11.05;100.00;100420.63;5016159;28;20180;-78
2023/05/06 02:39:59;;;;;;;3.83;3.53;;;;;;;10.98;100.00;100418.34;5016937;28;20236;-79
2023/05/06 02:42:24;;;;;;;4.67;4.27;;;;;;;10.88;100.00;100422.19;5017770;28;20303;-78
2023/05/06 02:44:50;;;;;;;6.10;5.27;;;;;;;10.83;100.00;100416.81;5018288;28;20180;-78
2023/05/06 02:47:15;;;;;;;3.70;3.43;;;;;;;10.72;100.00;100418.22;5024890;28;20183;-79
2023/05/06 02:49:40;;;;;;;6.93;3.27;;;;;;;10.70;100.00;100420.44;5027844;28;20211;-79
2023/05/06 02:52:06;;;;;;;5.10;4.80;;;;;;;10.64;100.00;100414.31;5023396;28;20257;-79
2023/05/06 02:54:31;;;;;;;4.33;4.03;;;;;;;10.54;100.00;100419.22;5018586;28;20204;-79
2023/05/06 02:56:56;;;;;;;5.17;4.67;;;;;;;10.46;100.00;100415.34;5018486;28;20188;-78
2023/05/06 02:59:22;;;;;;;2.47;2.27;;;;;;;10.35;100.00;100414.75;5016754;28;20251;-79
2023/05/06 03:01:47;;;;;;;3.47;3.23;;;;;;;10.31;100.00;100423.91;5018245;28;20204;-78
2023/05/06 03:04:13;;;;;;;2.83;2.63;;;;;;;10.26;100.00;100419.34;5018538;28;20180;-78
2023/05/06 03:06:38;;;;;;;1.93;1.83;;;;;;;10.20;100.00;100419.75;5017885;28;20291;-79
2023/05/06 03:09:03;;;;;;;2.20;1.70;;;;;;;10.18;100.00;100422.00;5016887;28;20192;-79
2023/05/06 03:11:30;;;;;;;4.67;4.10;;;;;;;10.15;100.00;100428.88;5017943;28;20835;-78
2023/05/06 03:13:56;;;;;;;4.43;4.13;;;;;;;10.13;100.00;100428.38;5017006;28;20593;-79
2023/05/06 03:16:21;;;;;;;1.30;1.27;;;;;;;10.16;100.00;100429.69;5032770;28;20180;-79
2023/05/06 03:18:46;;;;;;;0.70;0.70;;;;;;;10.13;100.00;100422.94;5016842;28;20180;-78
2023/05/06 03:21:12;;;;;;;0.53;0.53;;;;;;;10.13;100.00;100431.13;5016778;28;20196;-78
2023/05/06 03:23:37;;;;;;;0.60;0.60;;;;;;;10.14;100.00;100432.72;5031354;28;20187;-78
2023/05/06 03:26:02;;;;;;;2.90;2.70;;;;;;;10.18;100.00;100433.72;5014782;28;20720;-78
2023/05/06 03:28:28;;;;;;;1.27;1.17;;;;;;;10.17;100.00;100444.97;5016090;28;20250;-79
2023/05/06 03:30:53;;;;;;;5.13;1.73;;;;;;;10.10;100.00;100442.63;5016610;28;20251;-79
2023/05/06 03:33:18;;;;;;;1.03;0.53;;;;;;;10.08;100.00;100444.88;5016959;28;20212;-79
2023/05/06 03:35:43;;;;;;;1.17;1.13;;;;;;;10.03;100.00;100440.34;5017719;28;20180;-79
2023/05/06 03:38:09;;;;;;;2.23;2.13;;;;;;;9.99;100.00;100438.53;5021921;28;20184;-78
2023/05/06 03:40:34;;;;;;;0.97;0.80;;;;;;;9.99;100.00;100444.00;5019669;28;20259;-78
2023/05/06 03:43:00;;;;;;;1.17;1.17;;;;;;;9.96;100.00;100450.06;5032578;28;20167;-78
2023/05/06 03:45:25;;;;;;;1.70;1.60;;;;;;;9.94;100.00;100446.81;5034694;28;20199;-79
2023/05/06 03:47:51;;;;;;;2.50;1.43;;;;;;;9.94;100.00;100455.81;5023999;28;20619;-78
2023/05/06 03:50:16;;;;;;;1.53;0.97;;;;;;;9.93;100.00;100451.47;5019460;28;20195;-77
2023/05/06 03:52:41;;;;;;;1.23;1.23;;;;;;;9.90;100.00;100456.75;5021415;28;20204;-78
2023/05/06 03:55:07;;;;;;;1.00;1.00;;;;;;;9.94;100.00;100452.28;5020706;28;20219;-77
2023/05/06 03:57:32;;;;;;;1.77;1.67;;;;;;;9.96;100.00;100452.78;5020184;28;20200;-78
2023/05/06 03:59:58;;;;;;;4.33;2.40;;;;;;;9.89;100.00;100453.22;5019886;28;20218;-79
2023/05/06 04:02:23;;;;;;;1.63;1.53;;;;;;;9.90;100.00;100454.81;5017123;28;20294;-78
2023/05/06 04:04:49;;;;;;;1.37;1.37;;;;;;;9.89;100.00;100460.59;5017528;28;20195;-78
2023/05/06 04:07:14;;;;;;;2.33;2.13;;;;;;;9.91;100.00;100453.72;5017816;28;20227;-78
2023/05/06 04:09:39;;;;;;;1.83;1.73;;;;;;;9.95;100.00;100462.88;5017566;28;20184;-78
2023/05/06 04:12:05;;;;;;;3.33;3.13;;;;;;;10.05;100.00;100457.22;5016966;28;20209;-78
2023/05/06 04:14:31;;;;;;;5.93;2.20;;;;;;;10.03;100.00;100456.72;5016418;28;20674;-78
2023/05/06 04:16:56;;;;;;;2.13;2.03;;;;;;;9.99;100.00;100461.19;5016501;28;20192;-79
2023/05/06 04:19:22;;;;;;;2.30;2.10;;;;;;;9.99;100.00;100465.84;5019521;28;20203;-79
2023/05/06 04:21:47;;;;;;;2.33;2.23;;;;;;;10.01;100.00;100469.88;5019868;28;20207;-77
2023/05/06 04:24:14;;;;;;;6.50;4.17;;;;;;;10.05;100.00;100468.13;5019382;28;20639;-79
2023/05/06 04:26:43;;;;;;;3.77;3.40;;;;;;;10.08;100.00;100469.44;5017854;28;20188;-78
2023/05/06 04:29:08;;;;;;;2.43;2.33;;;;;;;10.10;100.00;100473.47;5019570;28;20184;-78
2023/05/06 04:31:35;;;;;;;2.13;2.03;;;;;;;10.11;100.00;100475.09;5018783;28;20600;-78
2023/05/06 04:34:01;;;;;;;6.43;4.10;;;;;;;10.11;100.00;100479.72;5017871;28;20219;-78
2023/05/06 04:36:27;;;;;;;3.77;3.13;;;;;;;10.13;100.00;100477.53;5019176;28;20184;-77
2023/05/06 04:38:52;;;;;;;1.37;1.33;;;;;;;10.13;100.00;100477.53;5019293;28;20185;-79
2023/05/06 04:41:19;;;;;;;5.03;4.53;;;;;;;10.11;100.00;100482.47;5034365;28;20209;-78
2023/05/06 04:43:45;;;;;;;5.83;5.37;;;;;;;10.07;100.00;100482.28;5020863;28;20280;-79
2023/05/06 04:46:10;;;;;;;3.80;3.50;;;;;;;10.06;100.00;100485.31;5019943;28;20753;-78
2023/05/06 04:48:35;;;;;;;2.53;2.40;;;;;;;10.08;100.00;100488.53;5019711;28;20188;-78
2023/05/06 04:51:04;;;;;;;4.97;4.50;;;;;;;10.09;100.00;100495.63;5020871;28;20223;-79
2023/05/06 04:53:29;;;;;;;3.03;2.80;;;;;;;10.10;100.00;100498.03;5020236;28;20220;-79
2023/05/06 04:55:55;;;;;;;3.23;2.97;;;;;;;10.11;100.00;100493.38;5034886;28;20215;-78
2023/05/06 04:58:20;;;;;;;4.33;2.03;;;;;;;10.10;100.00;100487.13;5019177;28;20177;-78
2023/05/06 05:00:45;;;;;;;4.30;3.77;;;;;;;10.11;100.00;100491.47;5019518;28;20252;-79
2023/05/06 05:03:11;;;;;;;3.07;2.87;;;;;;;10.11;100.00;100494.19;5019416;28;20184;-79
2023/05/06 05:05:36;;;;;;;5.13;4.63;;;;;;;10.13;100.00;100492.00;5018606;28;20203;-78
2023/05/06 05:08:01;;;;;;;3.70;3.40;;;;;;;10.14;100.00;100495.53;5017986;28;20216;-79
2023/05/06 05:10:27;;;;;;;4.13;2.37;;;;;;;10.17;100.00;100499.56;5020068;28;20231;-78
2023/05/06 05:12:52;;;;;;;3.17;2.97;;;;;;;10.21;100.00;100492.34;5019501;28;20200;-78
2023/05/06 05:15:17;;;;;;;1.70;1.47;;;;;;;10.24;100.00;100494.50;5018294;28;20181;-79
2023/05/06 05:17:43;;;;;;;3.60;3.40;;;;;;;10.20;100.00;100493.47;5018709;28;20210;-78
2023/05/06 05:20:09;;;;;;;1.23;1.13;;;;;;;10.22;100.00;100500.28;5019592;28;20223;-79
2023/05/06 05:22:34;;;;;;;2.77;2.57;;;;;;;10.24;100.00;100497.22;5017977;28;20692;-78
2023/05/06 05:24:59;;;;;;;1.83;1.73;;;;;;;10.23;100.00;100495.63;5018448;28;20591;-78
2023/05/06 05:27:25;;;;;;;2.83;2.63;;;;;;;10.19;100.00;100500.84;5018525;28;20196;-78
2023/05/06 05:29:50;;;;;;;4.60;4.20;;;;;;;10.20;100.00;100498.94;5018902;28;20184;-78
2023/05/06 05:32:15;;;;;;;1.23;1.07;;;;;;;10.17;100.00;100502.28;5017364;28;20212;-77
2023/05/06 05:34:41;;;;;;;6.43;3.83;;;;;;;10.20;100.00;100502.47;5016226;28;20262;-79
2023/05/06 05:37:06;;;;;;;6.87;5.43;;;;;;;10.27;100.00;100510.25;5019543;28;20551;-78
2023/05/06 05:39:31;;;;;;;3.67;3.37;;;;;;;10.28;100.00;100515.44;5019173;28;20557;-78
2023/05/06 05:41:57;;;;;;;6.73;5.93;;;;;;;10.32;100.00;100518.34;5010478;28;20205;-78
2023/05/06 05:44:22;;;;;;;5.80;5.30;;;;;;;10.30;100.00;100536.97;5008126;28;20655;-78
2023/05/06 05:46:48;;;;;;;3.80;3.50;;;;;;;10.32;100.00;100532.81;5017946;28;20191;-78
2023/05/06 05:49:13;;;;;;;6.63;4.63;;;;;;;10.37;100.00;100529.16;5019046;28;20263;-78
2023/05/06 05:51:38;;;;;;;3.80;3.57;;;;;;;10.38;100.00;100526.13;5017058;28;20212;-78
2023/05/06 05:54:04;;;;;;;8.67;7.87;;;;;;;10.44;100.00;100526.81;5018959;28;20622;-78
2023/05/06 05:56:29;;;;;;;4.60;4.30;;;;;;;10.48;100.00;100530.53;5018732;28;20228;-78
2023/05/06 05:58:54;;;;;;;1.57;1.47;;;;;;;10.60;100.00;100536.28;5017458;28;20188;-78
2023/05/06 06:01:20;;;;;;;6.60;4.33;;;;;;;10.71;100.00;100525.91;5019105;28;20254;-78
2023/05/06 06:03:46;;;;;;;0.67;0.67;;;;;;;10.81;100.00;100535.78;5018450;28;20173;-78
2023/05/06 06:06:11;;;;;;;5.77;5.20;;;;;;;10.90;100.00;100539.38;5018330;28;20231;-78
2023/05/06 06:08:36;;;;;;;5.40;4.97;;;;;;;10.97;100.00;100534.28;5019880;28;20650;-78
2023/05/06 06:11:03;;;;;;;1.50;1.07;;;;;;;11.11;100.00;100540.47;5025587;28;20200;-78
2023/05/06 06:13:28;;;;;;;3.80;3.60;;;;;;;11.13;100.00;100535.50;5027684;28;20197;-78
2023/05/06 06:15:55;;;;;;;1.77;1.60;;;;;;;11.15;100.00;100538.75;5014517;28;20602;-79
2023/05/06 06:18:20;;;;;;;3.63;3.37;;;;;;;11.16;100.00;100543.09;5015585;28;20180;-79
2023/05/06 06:20:47;;;;;;;1.33;1.17;;;;;;;11.15;100.00;100537.94;5016521;28;20235;-78
2023/05/06 06:23:12;;;;;;;1.70;1.67;;;;;;;11.25;100.00;100552.16;5016344;28;20661;-78
2023/05/06 06:25:37;;;;;;;3.57;3.27;;;;;;;11.31;100.00;100559.13;5013438;28;20184;-78
2023/05/06 06:28:03;;;;;;;2.90;2.37;;;;;;;11.38;100.00;100561.41;5013577;28;20199;-79
2023/05/06 06:30:28;;;;;;;1.00;0.97;;;;;;;11.51;100.00;100567.91;5015318;28;20192;-78
2023/05/06 06:32:55;;;;;;;1.43;1.33;;;;;;;11.56;100.00;100575.97;5011508;28;20679;-81
2023/05/06 06:35:22;;;;;;;3.03;2.77;;;;;;;11.70;100.00;100573.13;5007986;28;20176;-78
2023/05/06 06:37:47;;;;;;;2.93;2.60;;;;;;;11.65;100.00;100574.09;5015412;28;20207;-78
2023/05/06 06:40:13;;;;;;;1.97;1.87;;;;;;;11.78;100.00;100577.84;5015153;28;20184;-79
2023/05/06 06:42:38;;;;;;;10.93;0.93;;;;;;;11.88;100.00;100583.06;5014290;28;20605;-78
2023/05/06 06:45:07;;;;;;;2.53;2.33;;;;;;;11.88;100.00;100580.34;5012971;28;20180;-79
2023/05/06 06:47:33;;;;;;;0.30;0.30;;;;;;;11.94;100.00;100579.06;5014564;28;20184;-79
2023/05/06 06:49:58;;;;;;;1.23;1.13;;;;;;;12.02;100.00;100585.72;5014874;28;20176;-78
2023/05/06 06:52:24;;;;;;;1.93;1.83;;;;;;;12.03;100.00;100595.53;5013255;28;20291;-78
2023/05/06 06:54:49;;;;;;;0.97;0.97;;;;;;;11.97;100.00;100608.53;5014441;28;20254;-78
2023/05/06 06:57:14;;;;;;;0.23;0.23;;;;;;;12.01;100.00;100608.75;5014858;28;20196;-78
2023/05/06 06:59:40;;;;;;;4.33;3.40;;;;;;;11.95;100.00;100607.25;5014736;28;20226;-78
2023/05/06 07:02:05;;;;;;;0.53;0.50;;;;;;;12.03;100.00;100606.47;5014533;28;20201;-79
2023/05/06 07:04:30;;;;;;;2.37;1.33;;;;;;;12.03;100.00;100607.28;5014595;28;20188;-78
2023/05/06 07:06:56;;;;;;;1.80;1.03;;;;;;;12.03;100.00;100607.28;5014641;28;20690;-78
2023/05/06 07:09:21;;;;;;;5.33;4.93;;;;;;;12.04;100.00;100613.56;5014577;28;20207;-78
2023/05/06 07:11:46;;;;;;;2.40;2.20;;;;;;;11.98;100.00;100615.63;5012500;28;20200;-77
2023/05/06 07:14:12;;;;;;;0.20;0.20;;;;;;;11.90;100.00;100622.69;5013608;28;20207;-78
2023/05/06 07:16:37;;;;;;;2.27;2.17;;;;;;;12.06;100.00;100622.28;5013436;28;20202;-78
2023/05/06 07:19:02;;;;;;;1.07;1.07;;;;;;;12.17;100.00;100623.59;5014594;28;20181;-78
2023/05/06 07:21:31;;;;;;;0.00;0.00;;;;;;;12.24;100.00;100617.66;5012996;28;20206;-79
2023/05/06 07:23:56;;;;;;;1.83;1.73;;;;;;;12.32;100.00;100617.69;5014917;28;20234;-78
2023/05/06 07:26:21;;;;;;;0.43;0.43;;;;;;;12.39;100.00;100614.47;5015037;28;20658;-79
2023/05/06 07:28:47;;;;;;;1.13;0.90;;;;;;;12.49;100.00;100622.41;5015449;28;20179;-78
2023/05/06 07:31:14;;;;;;;0.00;0.00;;;;;;;12.44;100.00;100623.38;5015262;28;20200;-78
2023/05/06 07:33:40;;;;;;;2.43;2.23;;;;;;;12.44;100.00;100626.09;5014394;28;20200;-78
2023/05/06 07:36:05;;;;;;;1.03;0.63;;;;;;;12.43;100.00;100629.13;5015711;28;20532;-77
2023/05/06 07:38:30;;;;;;;0.10;0.10;;;;;;;12.46;100.00;100632.06;5015955;28;20184;-79
2023/05/06 07:40:56;;;;;;;0.60;0.60;;;;;;;12.46;100.00;100631.25;5016763;28;20646;-79
2023/05/06 07:43:21;;;;;;;1.07;1.00;;;;;;;12.46;100.00;100621.09;5016598;28;20196;-79
2023/05/06 07:45:47;;;;;;;0.00;0.00;;;;;;;12.43;100.00;100643.66;5015717;28;20204;-78
2023/05/06 07:48:12;;;;;;;0.00;0.00;;;;;;;12.54;100.00;100641.41;5016619;28;20185;-79
2023/05/06 07:50:38;;;;;;;2.10;1.97;;;;;;;12.49;100.00;100638.84;5015589;28;20641;-79
2023/05/06 07:53:03;;;;;;;0.40;0.37;;;;;;;12.43;100.00;100646.38;5015499;28;20544;-79
2023/05/06 07:55:28;;;;;;;0.00;0.00;;;;;;;12.64;100.00;100640.31;5015231;28;20206;-79
2023/05/06 07:57:54;;;;;;;0.67;0.67;;;;;;;12.70;100.00;100649.97;5013891;28;20183;-79
2023/05/06 08:00:19;;;;;;;2.20;1.63;;;;;;;12.55;100.00;100644.97;5013532;28;20177;-79
2023/05/06 08:02:46;;;;;;;3.13;2.83;;;;;;;12.54;100.00;100646.09;5014723;28;20718;-79
2023/05/06 08:05:12;;;;;;;0.00;0.00;;;;;;;12.86;100.00;100647.59;5014849;28;20250;-79
2023/05/06 08:07:41;;;;;;;0.90;0.87;;;;;;;12.68;100.00;100652.25;5015112;28;20199;-79
2023/05/06 08:10:08;;;;;;;2.70;2.33;;;;;;;12.64;100.00;100660.31;5005325;28;20200;-79
2023/05/06 08:12:34;;;;;;;0.57;0.53;;;;;;;12.70;100.00;100658.22;5017502;28;20577;-78
2023/05/06 08:14:59;;;;;;;0.00;0.00;;;;;;;12.90;100.00;100665.84;5002491;28;20217;-79
2023/05/06 08:17:25;;;;;;;0.37;0.37;;;;;;;13.18;100.00;100663.63;5009729;28;20606;-79
2023/05/06 08:19:50;;;;;;;0.33;0.33;;;;;;;13.35;100.00;100657.31;4998302;28;20764;-77
2023/05/06 08:22:16;;;;;;;2.53;2.33;;;;;;;13.38;100.00;100667.63;5010321;28;20246;-77
2023/05/06 08:24:41;;;;;;;4.40;2.50;;;;;;;13.26;100.00;100665.53;5003604;28;20288;-77
2023/05/06 08:27:06;;;;;;;0.00;0.00;;;;;;;13.30;100.00;100665.69;5011507;28;20259;-77
2023/05/06 08:29:32;;;;;;;0.00;0.00;;;;;;;13.76;100.00;100669.66;5004434;28;20538;-77
2023/05/06 08:31:57;;;;;;;0.07;0.07;;;;;;;13.58;100.00;100666.13;5001041;28;20196;-77
2023/05/06 08:34:22;;;;;;;0.00;0.00;;;;;;;13.93;100.00;100666.88;5005537;28;20209;-77
2023/05/06 08:36:48;;;;;;;1.63;1.53;;;;;;;14.25;100.00;100668.19;5007826;28;20184;-77
2023/05/06 08:39:13;;;;;;;2.30;2.13;;;;;;;14.29;100.00;100661.69;5011274;28;20238;-76
2023/05/06 08:41:40;;;;;;;0.23;0.23;;;;;;;14.01;100.00;100666.00;5027729;28;20204;-77
2023/05/06 08:44:07;;;;;;;0.20;0.20;;;;;;;14.26;100.00;100665.09;5014451;28;20194;-76
2023/05/06 08:46:33;;;;;;;1.00;1.00;;;;;;;14.31;100.00;100664.09;5015131;28;20184;-76
2023/05/06 08:48:58;;;;;;;0.10;0.10;;;;;;;14.49;100.00;100665.69;5015382;28;20226;-77
2023/05/06 08:51:28;;;;;;;4.13;3.20;;;;;;;14.51;100.00;100665.34;5016106;28;20278;-77
2023/05/06 08:53:54;;;;;;;5.73;2.83;;;;;;;14.33;100.00;100667.34;5014042;28;20192;-77
2023/05/06 08:56:23;;;;;;;0.70;0.70;;;;;;;14.23;100.00;100664.97;5013854;28;20593;-77
2023/05/06 08:58:50;;;;;;;2.93;2.53;;;;;;;14.26;100.00;100675.28;5014483;28;20652;-76
2023/05/06 09:01:16;;;;;;;0.00;0.00;;;;;;;14.20;100.00;100665.63;5013909;28;20200;-77
2023/05/06 09:03:42;;;;;;;0.00;0.00;;;;;;;14.03;100.00;100674.72;5014170;28;20172;-77
2023/05/06 09:06:09;;;;;;;1.50;0.50;;;;;;;14.11;100.00;100673.91;5028973;28;20195;-77
2023/05/06 09:08:35;;;;;;;1.30;0.83;;;;;;;14.11;100.00;100679.41;5013965;28;20572;-77
2023/05/06 09:11:00;;;;;;;0.53;0.53;;;;;;;14.29;100.00;100666.38;5013898;28;20196;-76
2023/05/06 09:13:25;;;;;;;0.10;0.10;;;;;;;14.48;100.00;100669.56;5013595;28;20208;-76
2023/05/06 09:15:53;;;;;;;0.40;0.27;;;;;;;14.59;97.12;100673.53;5012471;28;20192;-76
2023/05/06 09:18:18;;;;;;;0.77;0.77;;;;;;;14.90;97.15;100669.63;5014232;28;20671;-77
2023/05/06 09:20:48;;;;;;;0.57;0.57;;;;;;;14.76;95.34;100666.31;5013348;28;20181;-77
2023/05/06 09:23:16;;;;;;;0.20;0.20;;;;;;;14.80;97.10;100673.56;5013088;28;20198;-77
2023/05/06 09:25:44;;;;;;;0.00;0.00;;;;;;;14.84;97.16;100668.19;5012974;28;20216;-77
2023/05/06 09:28:11;;;;;;;0.00;0.00;;;;;;;14.89;97.20;100668.78;5013588;28;20180;-76
2023/05/06 09:30:40;;;;;;;0.10;0.10;;;;;;;14.87;95.09;100673.03;5015701;28;20234;-77
2023/05/06 09:33:06;;;;;;;1.57;1.47;;;;;;;14.81;94.84;100666.94;5015036;28;20181;-77
2023/05/06 09:35:40;;;;;;;1.37;1.27;;;;;;;15.08;96.89;100667.53;5027797;28;20613;-76
2023/05/06 09:38:06;;;;;;;1.50;1.40;;;;;;;15.30;96.59;100669.94;5012687;28;20177;-76
2023/05/06 09:40:33;;;;;;;0.30;0.30;;;;;;;15.21;92.89;100665.66;5012078;28;20176;-76
2023/05/06 09:42:59;;;;;;;0.43;0.43;;;;;;;15.43;94.14;100674.34;5009519;28;20263;-77
2023/05/06 09:45:26;;;;;;;0.00;0.00;;;;;;;15.45;92.89;100668.50;5012061;28;20185;-76
2023/05/06 09:47:52;;;;;;;2.00;1.90;;;;;;;15.66;91.58;100663.78;5012674;28;20186;-77
2023/05/06 09:50:20;;;;;;;0.70;0.70;;;;;;;15.79;90.29;100666.59;5012176;28;20267;-76
2023/05/06 09:52:47;;;;;;;2.00;1.90;;;;;;;15.46;87.51;100659.09;5010468;28;20703;-77
2023/05/06 09:55:13;;;;;;;0.57;0.57;;;;;;;15.52;89.29;100673.47;5011587;28;20254;-77
2023/05/06 09:57:39;;;;;;;2.33;2.20;;;;;;;15.62;90.96;100667.53;5012089;28;20192;-77
2023/05/06 10:00:08;;;;;;;0.00;0.00;;;;;;;15.63;90.76;100672.75;5012362;28;20189;-76
2023/05/06 10:02:34;;;;;;;1.07;1.00;;;;;;;15.83;90.87;100675.78;5028101;28;20207;-77
2023/05/06 10:05:04;;;;;;;1.30;1.20;;;;;;;15.81;89.66;100673.34;5011333;28;20642;-77
2023/05/06 10:07:30;;;;;;;3.00;2.73;;;;;;;15.90;89.23;100671.28;5011015;28;20714;-77
2023/05/06 10:09:57;;;;;;;0.40;0.40;;;;;;;15.87;89.74;100677.50;5011442;28;20227;-77
2023/05/06 10:12:23;;;;;;;1.50;1.07;;;;;;;15.66;89.78;100674.81;5012133;28;20575;-77
2023/05/06 10:14:48;;;;;;;1.50;0.30;;;;;;;15.58;90.72;100669.34;5011822;28;20368;-77
2023/05/06 10:17:14;;;;;;;0.27;0.27;;;;;;;15.69;90.74;100671.38;5010914;28;20274;-76
2023/05/06 10:19:43;;;;;;;0.43;0.43;;;;;;;15.77;89.77;100662.22;5011220;28;20183;-77
2023/05/06 10:22:20;;;;;;;2.53;2.33;;;;;;;15.88;89.06;100662.56;5011959;28;20287;-77
2023/05/06 10:24:58;;;;;;;0.00;0.00;;;;;;;15.53;87.68;100655.81;5011934;28;20634;-77
2023/05/06 10:27:24;;;;;;;0.77;0.77;;;;;;;15.57;86.11;100645.72;5013969;28;20740;-80
2023/05/06 10:29:52;;;;;;;4.60;1.67;;;;;;;15.75;85.21;100644.41;5014141;28;20267;-78
2023/05/06 10:32:19;;;;;;;1.03;1.03;;;;;;;16.08;84.38;100643.56;5015535;28;20208;-79
2023/05/06 10:34:53;;;;;;;0.43;0.43;;;;;;;15.93;84.27;100637.56;5015843;28;20261;-81
2023/05/06 10:37:24;;;;;;;0.60;0.60;;;;;;;16.16;84.55;100643.44;5012737;28;20187;-77
2023/05/06 10:39:51;;;;;;;2.33;1.33;;;;;;;15.58;82.77;100639.84;5008987;28;20672;-82
2023/05/06 10:42:17;;;;;;;3.83;2.07;;;;;;;15.90;82.71;100638.22;5001372;28;20733;-78
2023/05/06 10:44:55;;;;;;;1.60;1.13;;;;;;;16.23;82.52;100631.84;5012598;28;20176;-84
2023/05/06 10:47:21;;;;;;;0.00;0.00;;;;;;;16.45;81.93;100639.63;5003425;28;20562;-84
2023/05/06 10:50:25;;;;;;;0.73;0.73;;;;;;;16.30;82.71;100641.13;5005988;28;20176;-78
2023/05/06 10:52:55;;;;;;;0.60;0.60;;;;;;;15.97;83.55;100643.19;5006755;28;20216;-77
2023/05/06 10:55:26;;;;;;;0.60;0.60;;;;;;;16.00;83.83;100648.00;5011452;28;20713;-77
2023/05/06 10:58:09;;;;;;;0.77;0.53;;;;;;;16.52;86.45;100650.91;5013458;28;20542;-78
2023/05/06 11:00:35;;;;;;;1.73;1.53;;;;;;;16.29;80.61;100635.97;5014906;28;20184;-78
2023/05/06 11:03:04;;;;;;;0.70;0.70;;;;;;;16.46;79.08;100634.91;5012746;28;20177;-78
2023/05/06 11:05:30;;;;;;;0.17;0.17;;;;;;;16.51;79.14;100638.25;5015294;28;20233;-78
2023/05/06 11:08:09;;;;;;;0.40;0.40;;;;;;;16.64;81.13;100652.84;5013473;28;20176;-78
2023/05/06 11:10:35;;;;;;;0.70;0.70;;;;;;;16.52;78.35;100639.06;5015114;28;20184;-78
2023/05/06 11:13:23;;;;;;;1.63;1.53;;;;;;;16.54;75.21;100622.97;5016484;28;20263;-78
2023/05/06 11:15:50;;;;;;;0.00;0.00;;;;;;;16.73;75.38;100634.22;5006983;28;20177;-78